createdAt,value
2023-03-05T00:03:59.641Z,11.50
2023-03-05T00:12:05.090Z,11.30
2023-03-05T00:20:14.587Z,11.30
2023-03-05T00:28:20.176Z,11.10
2023-03-05T00:36:29.456Z,11.30
2023-03-05T00:44:35.762Z,11.10
2023-03-05T00:52:43.844Z,9.70
2023-03-05T01:00:50.758Z,9.60
2023-03-05T01:08:59.694Z,9.30
2023-03-05T01:17:05.476Z,9.50
2023-03-05T01:25:15.203Z,9.70
2023-03-05T01:33:20.761Z,9.70
2023-03-05T01:41:28.907Z,9.90
2023-03-05T01:49:37.023Z,10.00
2023-03-05T01:57:48.559Z,9.50
2023-03-05T02:05:53.978Z,8.90
2023-03-05T02:14:02.455Z,8.60
2023-03-05T02:22:17.931Z,8.20
2023-03-05T02:30:24.257Z,8.20
2023-03-05T02:38:32.372Z,8.40
2023-03-05T02:46:38.562Z,8.60
2023-03-05T02:54:46.740Z,8.40
2023-03-05T03:02:52.393Z,8.50
2023-03-05T03:11:06.622Z,8.60
2023-03-05T03:19:12.069Z,8.70
2023-03-05T03:27:19.946Z,7.90
2023-03-05T03:35:25.514Z,7.90
2023-03-05T03:43:33.700Z,8.10
2023-03-05T03:51:39.114Z,8.10
2023-03-05T03:59:47.249Z,8.00
2023-03-05T04:07:52.617Z,8.10
2023-03-05T04:16:00.780Z,7.50
2023-03-05T04:24:06.374Z,7.30
2023-03-05T04:32:14.765Z,7.40
2023-03-05T04:40:20.893Z,7.60
2023-03-05T04:48:28.948Z,7.40
2023-03-05T04:56:34.467Z,7.60
2023-03-05T05:04:45.255Z,7.90
2023-03-05T05:12:50.830Z,7.60
2023-03-05T05:20:58.962Z,7.70
2023-03-05T05:29:04.497Z,7.80
2023-03-05T05:37:12.536Z,7.90
2023-03-05T05:45:18.070Z,8.40
2023-03-05T05:53:27.018Z,8.30
2023-03-05T06:01:34.986Z,8.50
2023-03-05T06:09:43.106Z,8.70
2023-03-05T06:17:48.694Z,8.80
2023-03-05T06:25:58.856Z,9.10
2023-03-05T06:34:04.704Z,9.50
2023-03-05T06:42:13.048Z,10.10
2023-03-05T06:50:18.646Z,10.50
2023-03-05T06:58:27.065Z,10.90
2023-03-05T07:06:34.918Z,11.30
2023-03-05T07:14:43.064Z,11.90
2023-03-05T07:22:48.681Z,11.90
2023-03-05T07:31:02.458Z,12.30
2023-03-05T07:39:07.730Z,13.20
2023-03-05T07:47:15.744Z,13.50
2023-03-05T07:55:21.334Z,13.80
2023-03-05T08:03:29.487Z,13.90
2023-03-05T08:11:35.173Z,14.40
2023-03-05T08:19:45.026Z,14.60
2023-03-05T08:27:51.257Z,14.40
2023-03-05T08:35:59.208Z,14.50
2023-03-05T08:44:05.123Z,14.90
2023-03-05T08:52:13.286Z,15.70
2023-03-05T09:00:19.529Z,15.70
2023-03-05T09:08:27.576Z,16.10
2023-03-05T09:16:33.198Z,16.30
2023-03-05T09:24:41.356Z,16.80
2023-03-05T09:32:47.058Z,16.90
2023-03-05T09:41:02.534Z,16.90
2023-03-05T09:49:18.196Z,18.10
2023-03-05T09:57:32.084Z,18.80
2023-03-05T10:05:56.613Z,16.90
2023-03-05T10:14:06.945Z,16.30
2023-03-05T10:22:22.060Z,16.10
2023-03-05T10:30:54.834Z,17.70
2023-03-05T10:39:28.206Z,19.10
2023-03-05T10:47:47.725Z,19.40
2023-03-05T10:55:56.752Z,20.30
2023-03-05T11:04:36.505Z,18.70
2023-03-05T11:12:42.358Z,19.10
2023-03-05T11:20:50.875Z,20.50
2023-03-05T11:29:00.802Z,19.70
2023-03-05T11:37:10.582Z,19.50
2023-03-05T11:45:22.323Z,18.30
2023-03-05T11:53:36.121Z,17.00
2023-03-05T12:01:46.777Z,16.40
2023-03-05T12:09:56.154Z,16.60
2023-03-05T12:18:13.935Z,16.00
2023-03-05T12:26:43.299Z,15.30
2023-03-05T12:34:53.430Z,15.00
2023-03-05T12:43:03.535Z,14.50
2023-03-05T12:51:31.126Z,14.40
2023-03-05T12:59:48.319Z,14.30
2023-03-05T13:07:54.030Z,14.00
2023-03-05T13:16:03.524Z,14.30
2023-03-05T13:24:23.327Z,14.80
2023-03-05T13:32:37.417Z,14.70
2023-03-05T13:40:44.956Z,14.20
2023-03-05T13:48:58.104Z,14.20
2023-03-05T13:57:08.834Z,13.90
2023-03-05T14:05:25.767Z,13.40
2023-03-05T14:13:33.779Z,13.40
2023-03-05T14:21:53.511Z,13.20
2023-03-05T14:30:00.480Z,13.10
2023-03-05T14:38:08.930Z,13.10
2023-03-05T14:46:18.080Z,13.10
2023-03-05T14:54:29.517Z,12.80
2023-03-05T15:02:35.007Z,12.60
2023-03-05T15:10:43.136Z,12.40
2023-03-05T15:18:48.971Z,12.20
2023-03-05T15:26:57.107Z,12.20
2023-03-05T15:35:04.857Z,12.20
2023-03-05T15:43:14.989Z,12.00
2023-03-05T15:51:23.103Z,12.00
2023-03-05T15:59:31.777Z,11.70
2023-03-05T16:07:39.852Z,11.50
2023-03-05T16:15:53.379Z,11.40
2023-03-05T16:23:59.604Z,11.40
2023-03-05T16:32:08.836Z,11.30
2023-03-05T16:40:16.057Z,11.10
2023-03-05T16:48:24.154Z,11.10
2023-03-05T16:56:30.080Z,10.60
2023-03-05T17:04:38.195Z,10.50
2023-03-05T17:12:44.350Z,10.60
2023-03-05T17:20:59.020Z,10.50
2023-03-05T17:29:04.702Z,10.80
2023-03-05T17:37:12.748Z,10.70
2023-03-05T17:45:18.725Z,10.40
2023-03-05T17:53:30.181Z,10.70
2023-03-05T18:01:37.291Z,10.70
2023-03-05T18:09:47.287Z,10.50
2023-03-05T18:17:53.232Z,10.40
2023-03-05T18:26:01.367Z,10.20
2023-03-05T18:34:06.795Z,10.20
2023-03-05T18:42:17.750Z,9.90
2023-03-05T18:50:24.582Z,10.30
2023-03-05T18:58:32.800Z,10.40
2023-03-05T19:06:38.934Z,10.70
2023-03-05T19:14:46.988Z,10.60
2023-03-05T19:22:53.037Z,10.50
2023-03-05T19:31:01.079Z,10.50
2023-03-05T19:39:07.475Z,10.50
2023-03-05T19:47:18.460Z,10.60
2023-03-05T19:55:24.092Z,10.70
2023-03-05T20:03:32.297Z,10.80
2023-03-05T20:11:38.082Z,10.50
2023-03-05T20:19:46.405Z,10.50
2023-03-05T20:27:51.842Z,10.40
2023-03-05T20:36:01.420Z,10.30
2023-03-05T20:44:07.731Z,10.20
2023-03-05T20:52:15.739Z,10.00
2023-03-05T21:00:21.836Z,10.20
2023-03-05T21:08:29.859Z,10.20
2023-03-05T21:16:35.495Z,10.00
2023-03-05T21:25:21.159Z,10.00
2023-03-05T21:33:28.557Z,10.10
2023-03-05T21:41:36.618Z,10.00
2023-03-05T21:49:41.984Z,10.10
2023-03-05T21:57:50.225Z,10.10
2023-03-05T22:05:55.922Z,10.10
2023-03-05T22:14:04.067Z,10.10
2023-03-05T22:22:09.659Z,10.10
2023-03-05T22:30:18.169Z,10.00
2023-03-05T22:38:24.418Z,10.00
2023-03-05T22:46:32.454Z,10.30
2023-03-05T22:54:37.818Z,10.50
2023-03-05T23:02:48.885Z,10.40
2023-03-05T23:10:54.323Z,10.40
2023-03-05T23:19:02.496Z,10.40
2023-03-05T23:27:09.406Z,10.40
2023-03-05T23:35:19.594Z,10.50
2023-03-05T23:43:27.546Z,10.40
2023-03-05T23:51:35.561Z,10.30
2023-03-05T23:59:40.898Z,10.10
